createdAt,value
2019-04-06T00:00:15.163Z,74.88
2019-04-06T00:00:46.450Z,74.30
2019-04-06T00:01:17.650Z,73.47
2019-04-06T00:01:48.851Z,73.43
2019-04-06T00:02:20.108Z,73.53
2019-04-06T00:02:51.344Z,73.54
2019-04-06T00:03:22.569Z,73.74
2019-04-06T00:03:53.870Z,74.20
2019-04-06T00:04:25.147Z,74.73
2019-04-06T00:04:56.479Z,74.96
2019-04-06T00:05:27.718Z,74.99
2019-04-06T00:05:59.007Z,75.03
2019-04-06T00:06:30.314Z,75.22
2019-04-06T00:07:01.588Z,75.92
2019-04-06T00:07:32.913Z,75.72
2019-04-06T00:08:04.178Z,75.47
2019-04-06T00:08:35.381Z,75.46
2019-04-06T00:09:06.660Z,75.43
2019-04-06T00:09:37.922Z,75.45
2019-04-06T00:10:09.168Z,75.78
2019-04-06T00:10:40.422Z,75.88
2019-04-06T00:11:11.656Z,76.04
2019-04-06T00:11:42.855Z,76.18
2019-04-06T00:12:14.096Z,75.99
2019-04-06T00:12:45.341Z,76.00
2019-04-06T00:13:16.573Z,76.11
2019-04-06T00:13:47.817Z,76.08
2019-04-06T00:14:19.125Z,76.11
2019-04-06T00:14:50.429Z,76.28
2019-04-06T00:15:21.685Z,76.52
2019-04-06T00:15:52.889Z,76.98
2019-04-06T00:16:24.158Z,76.98
2019-04-06T00:16:55.441Z,76.25
2019-04-06T00:17:28.722Z,75.61
2019-04-06T00:18:00.833Z,75.23
2019-04-06T00:18:32.119Z,75.12
2019-04-06T00:19:03.415Z,75.12
2019-04-06T00:19:34.668Z,75.39
2019-04-06T00:20:05.888Z,75.58
2019-04-06T00:20:37.094Z,75.74
2019-04-06T00:21:08.371Z,75.93
2019-04-06T00:21:39.671Z,76.12
2019-04-06T00:22:11.889Z,76.44
2019-04-06T00:22:43.071Z,76.31
2019-04-06T00:23:14.288Z,76.44
2019-04-06T00:23:48.335Z,76.71
2019-04-06T00:24:19.576Z,77.08
2019-04-06T00:24:50.876Z,76.63
2019-04-06T00:25:22.132Z,76.44
2019-04-06T00:25:55.767Z,76.39
2019-04-06T00:26:27.053Z,76.55
2019-04-06T00:26:58.327Z,76.60
2019-04-06T00:27:29.550Z,76.47
2019-04-06T00:28:00.868Z,76.60
2019-04-06T00:28:32.179Z,76.71
2019-04-06T00:29:03.409Z,76.84
2019-04-06T00:29:34.684Z,77.43
2019-04-06T00:30:05.998Z,77.41
2019-04-06T00:30:37.259Z,76.89
2019-04-06T00:31:08.555Z,76.97
2019-04-06T00:31:39.855Z,76.98
2019-04-06T00:32:11.238Z,77.61
2019-04-06T00:32:45.165Z,76.99
2019-04-06T00:33:16.398Z,76.69
2019-04-06T00:33:47.694Z,76.27
2019-04-06T00:34:21.745Z,76.20
2019-04-06T00:34:53.056Z,76.14
2019-04-06T00:35:24.356Z,76.21
2019-04-06T00:35:55.697Z,76.21
2019-04-06T00:36:29.843Z,76.31
2019-04-06T00:37:01.084Z,76.35
2019-04-06T00:37:32.337Z,76.59
2019-04-06T00:38:03.657Z,76.92
2019-04-06T00:38:34.944Z,76.80
2019-04-06T00:39:06.157Z,77.01
2019-04-06T00:39:37.400Z,77.01
2019-04-06T00:40:08.591Z,77.34
2019-04-06T00:40:39.889Z,76.62
2019-04-06T00:41:11.180Z,76.22
2019-04-06T00:41:42.420Z,76.61
2019-04-06T00:42:13.659Z,76.70
2019-04-06T00:42:44.893Z,76.68
2019-04-06T00:43:16.133Z,76.44
2019-04-06T00:43:47.430Z,76.55
2019-04-06T00:44:18.809Z,76.37
2019-04-06T00:44:50.185Z,76.50
2019-04-06T00:45:21.463Z,76.75
2019-04-06T00:45:52.833Z,77.73
2019-04-06T00:46:24.126Z,76.70
2019-04-06T00:46:55.356Z,76.23
2019-04-06T00:47:26.654Z,76.17
2019-04-06T00:47:57.934Z,76.47
2019-04-06T00:48:29.192Z,76.14
2019-04-06T00:49:00.432Z,76.72
2019-04-06T00:49:31.699Z,76.59
2019-04-06T00:50:02.888Z,76.36
2019-04-06T00:50:34.532Z,76.54
2019-04-06T00:51:05.771Z,76.74
2019-04-06T00:51:37.001Z,77.40
2019-04-06T00:52:08.224Z,76.51
2019-04-06T00:52:39.461Z,75.97
2019-04-06T00:53:13.732Z,76.61
2019-04-06T00:53:44.969Z,76.08
2019-04-06T00:54:17.129Z,75.98
2019-04-06T00:54:48.616Z,75.57
2019-04-06T00:55:19.911Z,75.08
2019-04-06T00:55:55.969Z,75.18
2019-04-06T00:56:24.051Z,75.36
2019-04-06T00:56:55.338Z,75.52
2019-04-06T00:57:26.597Z,75.58
2019-04-06T00:57:57.954Z,76.71
2019-04-06T00:58:29.229Z,76.60
2019-04-06T00:59:03.304Z,75.98
2019-04-06T00:59:34.722Z,75.93
2019-04-06T01:00:06.061Z,75.77
2019-04-06T01:00:37.306Z,76.01
2019-04-06T01:01:10.891Z,76.17
2019-04-06T01:01:43.045Z,76.59
2019-04-06T01:02:14.332Z,76.29
2019-04-06T01:02:45.550Z,75.85
2019-04-06T01:03:16.804Z,75.68
2019-04-06T01:03:48.079Z,75.84
2019-04-06T01:04:19.293Z,76.75
2019-04-06T01:04:50.540Z,76.37
2019-04-06T01:05:21.811Z,76.00
2019-04-06T01:05:53.173Z,76.58
2019-04-06T01:06:24.434Z,76.95
2019-04-06T01:06:55.649Z,76.87
2019-04-06T01:07:26.862Z,76.57
2019-04-06T01:07:58.181Z,76.12
2019-04-06T01:08:29.365Z,74.90
2019-04-06T01:09:00.655Z,74.26
2019-04-06T01:09:31.893Z,74.17
2019-04-06T01:10:03.159Z,74.56
2019-04-06T01:10:34.544Z,74.62
2019-04-06T01:11:05.789Z,74.65
2019-04-06T01:11:37.144Z,74.93
2019-04-06T01:12:08.402Z,75.59
2019-04-06T01:12:39.675Z,75.69
2019-04-06T01:13:13.226Z,76.01
2019-04-06T01:13:44.533Z,77.22
2019-04-06T01:14:15.951Z,76.04
2019-04-06T01:14:47.179Z,75.59
2019-04-06T01:15:18.446Z,75.44
2019-04-06T01:15:49.776Z,75.79
2019-04-06T01:16:21.037Z,76.09
2019-04-06T01:16:52.257Z,76.39
2019-04-06T01:17:23.541Z,76.73
2019-04-06T01:17:54.742Z,76.44
2019-04-06T01:18:26.041Z,76.08
2019-04-06T01:18:57.361Z,75.97
2019-04-06T01:19:28.824Z,75.31
2019-04-06T01:20:00.252Z,75.16
2019-04-06T01:20:33.294Z,75.18
2019-04-06T01:21:04.596Z,75.74
2019-04-06T01:21:35.900Z,75.91
2019-04-06T01:22:07.139Z,75.91
2019-04-06T01:22:38.452Z,75.95
2019-04-06T01:23:09.630Z,76.02
2019-04-06T01:23:40.867Z,76.16
2019-04-06T01:24:12.153Z,76.37
2019-04-06T01:24:43.373Z,76.97
2019-04-06T01:25:14.628Z,77.54
2019-04-06T01:25:47.862Z,77.06
2019-04-06T01:26:19.179Z,76.74
2019-04-06T01:26:50.399Z,76.78
2019-04-06T01:27:21.703Z,76.96
2019-04-06T01:27:52.941Z,77.29
2019-04-06T01:28:24.184Z,77.24
2019-04-06T01:28:55.472Z,76.47
2019-04-06T01:29:26.809Z,76.67
2019-04-06T01:29:58.068Z,76.64
2019-04-06T01:30:29.420Z,76.76
2019-04-06T01:31:00.770Z,76.06
2019-04-06T01:31:32.012Z,75.49
2019-04-06T01:32:03.311Z,75.73
2019-04-06T01:32:34.703Z,75.69
2019-04-06T01:33:06.007Z,75.84
2019-04-06T01:33:37.297Z,75.97
2019-04-06T01:34:08.558Z,76.01
2019-04-06T01:34:39.931Z,76.14
2019-04-06T01:35:13.015Z,76.20
2019-04-06T01:35:44.307Z,76.51
2019-04-06T01:36:15.625Z,77.52
2019-04-06T01:36:46.965Z,77.05
2019-04-06T01:37:18.291Z,76.78
2019-04-06T01:37:49.618Z,76.68
2019-04-06T01:38:23.806Z,76.75
2019-04-06T01:38:56.268Z,76.91
2019-04-06T01:39:27.565Z,77.17
2019-04-06T01:40:01.661Z,77.53
2019-04-06T01:40:32.942Z,77.49
2019-04-06T01:41:04.234Z,77.57
2019-04-06T01:41:35.526Z,77.86
2019-04-06T01:42:06.842Z,77.99
2019-04-06T01:42:38.149Z,77.86
2019-04-06T01:43:09.390Z,77.81
2019-04-06T01:43:40.724Z,78.10
2019-04-06T01:44:11.996Z,78.05
2019-04-06T01:44:43.249Z,78.00
2019-04-06T01:45:14.590Z,78.74
2019-04-06T01:45:45.804Z,78.70
2019-04-06T01:46:18.421Z,78.04
2019-04-06T01:46:49.688Z,77.38
2019-04-06T01:47:21.007Z,77.24
2019-04-06T01:47:55.015Z,77.19
2019-04-06T01:48:26.367Z,77.28
2019-04-06T01:48:57.605Z,77.27
2019-04-06T01:49:28.888Z,77.21
2019-04-06T01:50:00.200Z,77.16
2019-04-06T01:50:31.441Z,77.46
2019-04-06T01:51:02.671Z,77.83
2019-04-06T01:51:33.898Z,78.41
2019-04-06T01:52:05.136Z,78.27
2019-04-06T01:52:39.453Z,78.19
2019-04-06T01:53:10.810Z,78.62
2019-04-06T01:53:42.101Z,78.03
2019-04-06T01:54:13.344Z,77.52
2019-04-06T01:54:44.647Z,77.16
2019-04-06T01:55:16.600Z,76.46
2019-04-06T01:55:48.091Z,76.30
2019-04-06T01:56:19.786Z,77.03
2019-04-06T01:56:51.075Z,77.13
2019-04-06T01:57:22.335Z,76.53
2019-04-06T01:57:53.541Z,76.09
2019-04-06T01:58:24.757Z,75.94
2019-04-06T01:58:56.178Z,76.40
2019-04-06T01:59:27.487Z,76.87
2019-04-06T01:59:58.727Z,76.41
2019-04-06T02:00:29.975Z,75.74
2019-04-06T02:01:01.258Z,75.67
2019-04-06T02:01:32.517Z,75.56
2019-04-06T02:02:03.802Z,75.47
2019-04-06T02:02:35.046Z,75.81
2019-04-06T02:03:06.283Z,75.57
2019-04-06T02:03:37.587Z,75.42
2019-04-06T02:04:08.901Z,75.38
2019-04-06T02:04:40.298Z,75.37
2019-04-06T02:05:11.480Z,75.46
2019-04-06T02:05:42.713Z,75.83
2019-04-06T02:06:13.995Z,75.51
2019-04-06T02:06:45.393Z,75.95
2019-04-06T02:07:16.706Z,75.58
2019-04-06T02:07:47.994Z,76.04
2019-04-06T02:08:19.230Z,76.18
2019-04-06T02:08:50.513Z,75.50
2019-04-06T02:09:21.872Z,75.09
2019-04-06T02:09:53.110Z,75.00
2019-04-06T02:10:24.322Z,75.24
2019-04-06T02:10:55.617Z,75.61
2019-04-06T02:11:26.923Z,76.20
2019-04-06T02:11:58.136Z,76.11
2019-04-06T02:12:29.436Z,75.53
2019-04-06T02:13:00.687Z,75.72
2019-04-06T02:13:32.055Z,74.95
2019-04-06T02:14:03.368Z,74.36
2019-04-06T02:14:34.630Z,74.24
2019-04-06T02:15:05.879Z,74.31
2019-04-06T02:15:37.179Z,73.95
2019-04-06T02:16:08.456Z,73.89
2019-04-06T02:16:39.748Z,73.24
2019-04-06T02:17:10.967Z,72.86
2019-04-06T02:17:42.213Z,72.39
2019-04-06T02:18:13.520Z,71.27
2019-04-06T02:18:44.730Z,70.84
2019-04-06T02:19:16.000Z,70.86
2019-04-06T02:19:47.272Z,71.15
2019-04-06T02:20:18.525Z,72.31
2019-04-06T02:20:49.823Z,72.60
2019-04-06T02:21:21.035Z,72.32
2019-04-06T02:21:52.284Z,72.84
2019-04-06T02:22:23.587Z,72.48
2019-04-06T02:22:54.786Z,71.89
2019-04-06T02:23:26.036Z,71.36
2019-04-06T02:23:57.339Z,71.59
2019-04-06T02:24:28.668Z,71.80
2019-04-06T02:24:59.976Z,71.62
2019-04-06T02:25:31.287Z,71.78
2019-04-06T02:26:02.659Z,72.25
2019-04-06T02:26:35.143Z,71.97
2019-04-06T02:27:06.408Z,71.70
2019-04-06T02:27:40.700Z,71.73
2019-04-06T02:28:11.967Z,71.68
2019-04-06T02:28:43.190Z,72.08
2019-04-06T02:29:14.379Z,73.28
2019-04-06T02:29:45.661Z,73.40
2019-04-06T02:30:16.973Z,72.87
2019-04-06T02:30:48.266Z,72.53
2019-04-06T02:31:19.473Z,72.47
2019-04-06T02:31:50.680Z,71.57
2019-04-06T02:32:21.951Z,71.68
2019-04-06T02:32:53.220Z,71.38
2019-04-06T02:33:24.621Z,71.40
2019-04-06T02:33:56.099Z,71.17
2019-04-06T02:34:27.337Z,70.95
2019-04-06T02:34:58.590Z,71.00
2019-04-06T02:35:29.863Z,70.09
2019-04-06T02:36:01.201Z,69.74
2019-04-06T02:36:32.548Z,69.71
2019-04-06T02:37:03.813Z,69.81
2019-04-06T02:37:35.045Z,70.29
2019-04-06T02:38:06.478Z,71.06
2019-04-06T02:38:37.804Z,71.61
2019-04-06T02:39:09.101Z,71.59
2019-04-06T02:39:42.123Z,71.39
2019-04-06T02:40:13.495Z,71.61
2019-04-06T02:40:44.788Z,71.39
2019-04-06T02:41:16.086Z,70.75
2019-04-06T02:41:47.348Z,70.38
2019-04-06T02:42:18.637Z,69.55
2019-04-06T02:42:49.876Z,69.83
2019-04-06T02:43:21.191Z,70.01
2019-04-06T02:43:52.658Z,69.96
2019-04-06T02:44:25.022Z,70.63
2019-04-06T02:44:56.307Z,70.98
2019-04-06T02:45:27.593Z,70.91
2019-04-06T02:45:58.799Z,70.87
2019-04-06T02:46:31.148Z,70.71
2019-04-06T02:47:02.638Z,70.20
2019-04-06T02:47:33.925Z,69.77
2019-04-06T02:48:05.229Z,69.62
2019-04-06T02:48:36.551Z,69.73
2019-04-06T02:49:08.057Z,70.82
2019-04-06T02:49:39.375Z,70.82
2019-04-06T02:50:10.629Z,70.26
2019-04-06T02:50:41.918Z,70.14
2019-04-06T02:51:13.306Z,70.05
2019-04-06T02:51:44.664Z,69.92
2019-04-06T02:52:15.933Z,69.48
2019-04-06T02:52:47.154Z,69.56
2019-04-06T02:53:18.452Z,70.55
2019-04-06T02:53:51.734Z,71.31
2019-04-06T02:54:22.645Z,70.93
2019-04-06T02:54:53.935Z,70.69
2019-04-06T02:55:25.198Z,70.21
2019-04-06T02:55:56.440Z,70.11
2019-04-06T02:56:27.765Z,69.91
2019-04-06T02:56:59.027Z,69.69
2019-04-06T02:57:30.681Z,70.14
2019-04-06T02:58:01.946Z,70.03
2019-04-06T02:58:33.179Z,69.42
2019-04-06T02:59:04.660Z,69.41
2019-04-06T02:59:35.954Z,69.09
2019-04-06T03:00:07.204Z,69.28
2019-04-06T03:00:38.568Z,68.98
2019-04-06T03:01:09.824Z,69.02
2019-04-06T03:01:41.061Z,69.15
2019-04-06T03:02:12.368Z,69.75
2019-04-06T03:02:43.676Z,69.72
2019-04-06T03:03:14.946Z,70.54
2019-04-06T03:03:46.198Z,71.29
2019-04-06T03:04:17.563Z,71.45
2019-04-06T03:04:48.947Z,71.19
2019-04-06T03:05:20.204Z,70.64
2019-04-06T03:05:51.452Z,70.33
2019-04-06T03:06:22.753Z,70.55
2019-04-06T03:06:54.038Z,71.06
2019-04-06T03:07:25.431Z,70.97
2019-04-06T03:07:56.704Z,71.14
2019-04-06T03:08:27.997Z,71.05
2019-04-06T03:08:59.185Z,70.67
2019-04-06T03:09:30.441Z,71.08
2019-04-06T03:10:02.961Z,71.04
2019-04-06T03:10:34.204Z,71.06
2019-04-06T03:11:05.481Z,71.16
2019-04-06T03:11:39.467Z,71.53
2019-04-06T03:12:10.751Z,72.04
2019-04-06T03:12:42.026Z,71.91
2019-04-06T03:13:13.303Z,72.37
2019-04-06T03:13:44.689Z,73.11
2019-04-06T03:14:15.904Z,72.09
2019-04-06T03:14:47.137Z,71.70
2019-04-06T03:15:20.092Z,71.50
2019-04-06T03:15:51.364Z,71.69
2019-04-06T03:16:22.646Z,71.65
2019-04-06T03:16:56.596Z,72.00
2019-04-06T03:17:27.925Z,72.35
2019-04-06T03:17:59.286Z,73.01
2019-04-06T03:18:30.627Z,73.77
2019-04-06T03:19:02.832Z,73.47
2019-04-06T03:19:34.127Z,72.97
2019-04-06T03:20:05.375Z,72.10
2019-04-06T03:20:36.703Z,71.59
2019-04-06T03:21:07.975Z,71.48
2019-04-06T03:21:39.242Z,71.86
2019-04-06T03:22:10.515Z,72.10
2019-04-06T03:22:41.869Z,71.75
2019-04-06T03:23:13.121Z,71.86
2019-04-06T03:23:51.240Z,71.69
2019-04-06T03:24:17.419Z,71.38
2019-04-06T03:24:48.724Z,71.23
2019-04-06T03:25:20.153Z,71.04
2019-04-06T03:25:51.441Z,71.95
2019-04-06T03:26:22.743Z,71.41
2019-04-06T03:27:01.961Z,71.28
2019-04-06T03:27:26.895Z,71.39
2019-04-06T03:27:58.303Z,71.61
2019-04-06T03:28:29.575Z,71.80
2019-04-06T03:29:00.885Z,72.29
2019-04-06T03:29:32.097Z,73.37
2019-04-06T03:30:03.614Z,73.23
2019-04-06T03:30:34.881Z,73.06
2019-04-06T03:31:06.166Z,72.86
2019-04-06T03:31:37.359Z,71.48
2019-04-06T03:32:08.693Z,71.60
2019-04-06T03:32:40.351Z,71.74
2019-04-06T03:33:11.738Z,71.90
2019-04-06T03:33:43.213Z,71.55
2019-04-06T03:34:20.003Z,70.22
2019-04-06T03:34:47.668Z,69.99
2019-04-06T03:35:21.252Z,70.03
2019-04-06T03:35:52.685Z,70.17
2019-04-06T03:36:24.168Z,70.96
2019-04-06T03:36:55.444Z,71.03
2019-04-06T03:37:26.670Z,71.00
2019-04-06T03:37:57.888Z,72.07
2019-04-06T03:38:29.340Z,71.97
2019-04-06T03:39:00.668Z,72.09
2019-04-06T03:39:31.931Z,71.77
2019-04-06T03:40:03.198Z,71.18
2019-04-06T03:40:34.540Z,70.79
2019-04-06T03:41:05.801Z,70.77
2019-04-06T03:41:37.066Z,71.32
2019-04-06T03:42:10.636Z,71.25
2019-04-06T03:42:41.415Z,71.23
2019-04-06T03:43:12.651Z,70.70
2019-04-06T03:43:43.895Z,70.42
2019-04-06T03:44:15.290Z,70.59
2019-04-06T03:44:46.461Z,71.14
2019-04-06T03:45:17.721Z,70.99
2019-04-06T03:45:48.955Z,70.99
2019-04-06T03:46:20.348Z,71.66
2019-04-06T03:46:51.611Z,72.28
2019-04-06T03:47:22.855Z,71.69
2019-04-06T03:47:54.087Z,71.47
2019-04-06T03:48:28.163Z,71.65
2019-04-06T03:48:59.768Z,72.92
2019-04-06T03:49:31.087Z,72.22
2019-04-06T03:50:02.412Z,71.78
2019-04-06T03:50:33.636Z,72.45
2019-04-06T03:51:04.937Z,72.78
2019-04-06T03:51:36.321Z,72.74
2019-04-06T03:52:07.570Z,72.19
2019-04-06T03:52:38.834Z,71.50
2019-04-06T03:53:10.184Z,70.86
2019-04-06T03:53:41.425Z,70.44
2019-04-06T03:54:12.721Z,70.56
2019-04-06T03:54:44.045Z,70.64
2019-04-06T03:55:15.301Z,70.86
2019-04-06T03:55:49.527Z,71.25
2019-04-06T03:56:21.070Z,70.92
2019-04-06T03:56:52.329Z,70.14
2019-04-06T03:57:23.552Z,69.54
2019-04-06T03:57:54.811Z,69.19
2019-04-06T03:58:26.155Z,69.59
2019-04-06T03:58:57.543Z,69.75
2019-04-06T03:59:28.935Z,70.02
2019-04-06T04:00:00.193Z,70.42
2019-04-06T04:00:31.572Z,71.13
2019-04-06T04:01:02.950Z,71.60
2019-04-06T04:01:34.315Z,71.99
2019-04-06T04:02:05.658Z,71.67
2019-04-06T04:02:36.960Z,71.92
2019-04-06T04:03:08.392Z,71.25
2019-04-06T04:03:39.677Z,70.73
2019-04-06T04:04:11.033Z,70.41
2019-04-06T04:04:42.372Z,70.34
2019-04-06T04:05:13.695Z,70.56
2019-04-06T04:05:44.949Z,71.69
2019-04-06T04:06:16.210Z,71.46
2019-04-06T04:06:47.468Z,70.80
2019-04-06T04:07:19.088Z,70.55
2019-04-06T04:07:53.365Z,70.16
2019-04-06T04:08:24.767Z,69.79
2019-04-06T04:08:56.067Z,69.85
2019-04-06T04:09:27.319Z,70.12
2019-04-06T04:09:58.658Z,70.33
2019-04-06T04:10:29.998Z,69.68
2019-04-06T04:11:01.561Z,68.71
2019-04-06T04:11:33.231Z,69.08
2019-04-06T04:12:04.483Z,68.59
2019-04-06T04:12:35.845Z,68.72
2019-04-06T04:13:07.144Z,68.90
2019-04-06T04:13:38.781Z,68.66
2019-04-06T04:14:11.278Z,68.65
2019-04-06T04:14:42.587Z,68.08
2019-04-06T04:15:15.126Z,68.08
2019-04-06T04:15:46.453Z,68.29
2019-04-06T04:16:17.843Z,68.33
2019-04-06T04:16:49.119Z,68.26
2019-04-06T04:17:20.517Z,68.41
2019-04-06T04:17:51.813Z,68.98
2019-04-06T04:18:23.118Z,69.11
2019-04-06T04:18:57.124Z,69.37
2019-04-06T04:19:28.561Z,70.09
2019-04-06T04:19:59.943Z,69.75
2019-04-06T04:20:31.249Z,69.54
2019-04-06T04:21:02.587Z,70.04
2019-04-06T04:21:33.933Z,69.92
2019-04-06T04:22:05.205Z,69.62
2019-04-06T04:22:36.572Z,69.75
2019-04-06T04:23:07.911Z,69.96
2019-04-06T04:23:39.234Z,70.58
2019-04-06T04:24:10.509Z,71.81
2019-04-06T04:24:41.798Z,71.66
2019-04-06T04:25:13.061Z,71.57
2019-04-06T04:25:44.505Z,71.12
2019-04-06T04:26:15.901Z,70.70
2019-04-06T04:26:47.179Z,71.01
2019-04-06T04:27:28.287Z,70.55
2019-04-06T04:27:51.425Z,69.81
2019-04-06T04:28:22.815Z,70.13
2019-04-06T04:28:56.204Z,70.32
2019-04-06T04:29:27.178Z,69.75
2019-04-06T04:29:58.537Z,69.52
2019-04-06T04:30:33.388Z,70.22
2019-04-06T04:31:03.094Z,70.12
2019-04-06T04:31:34.457Z,70.26
2019-04-06T04:32:05.698Z,70.26
2019-04-06T04:32:36.975Z,71.19
2019-04-06T04:33:08.257Z,70.63
2019-04-06T04:33:39.564Z,70.42
2019-04-06T04:34:10.890Z,69.56
2019-04-06T04:34:42.195Z,68.97
2019-04-06T04:35:13.472Z,68.84
2019-04-06T04:35:44.733Z,68.88
2019-04-06T04:36:16.054Z,68.98
2019-04-06T04:36:47.350Z,69.72
2019-04-06T04:37:20.702Z,69.88
2019-04-06T04:37:52.011Z,70.11
2019-04-06T04:38:23.329Z,69.99
2019-04-06T04:38:54.721Z,70.65
2019-04-06T04:39:26.065Z,70.40
2019-04-06T04:39:57.317Z,70.76
2019-04-06T04:40:31.112Z,70.80
2019-04-06T04:41:02.418Z,71.16
2019-04-06T04:41:33.929Z,71.32
2019-04-06T04:42:05.234Z,70.84
2019-04-06T04:42:36.634Z,71.09
2019-04-06T04:43:07.945Z,71.05
2019-04-06T04:43:39.246Z,71.63
2019-04-06T04:44:10.597Z,71.66
2019-04-06T04:44:41.973Z,71.67
2019-04-06T04:45:13.451Z,72.12
2019-04-06T04:45:45.010Z,72.61
2019-04-06T04:46:18.294Z,72.45
2019-04-06T04:46:50.491Z,72.41
2019-04-06T04:47:21.767Z,71.82
2019-04-06T04:47:52.983Z,71.48
2019-04-06T04:48:24.298Z,71.34
2019-04-06T04:48:57.109Z,71.01
2019-04-06T04:49:31.247Z,70.38
2019-04-06T04:50:02.554Z,70.75
2019-04-06T04:50:33.823Z,70.40
2019-04-06T04:51:05.186Z,70.23
2019-04-06T04:51:39.571Z,70.37
2019-04-06T04:52:13.637Z,70.56
2019-04-06T04:52:47.333Z,71.05
2019-04-06T04:53:18.644Z,71.05
2019-04-06T04:53:50.059Z,71.28
2019-04-06T04:54:22.638Z,71.19
2019-04-06T04:54:58.414Z,71.29
2019-04-06T04:55:29.733Z,71.49
2019-04-06T04:56:02.811Z,71.52
2019-04-06T04:56:34.207Z,71.40
2019-04-06T04:57:05.523Z,71.35
2019-04-06T04:57:41.261Z,71.46
2019-04-06T04:58:09.845Z,71.34
2019-04-06T04:58:41.173Z,71.44
2019-04-06T04:59:14.443Z,71.61
2019-04-06T04:59:45.731Z,71.77
2019-04-06T05:00:17.009Z,72.66
2019-04-06T05:00:48.351Z,72.42
2019-04-06T05:01:19.660Z,72.27
2019-04-06T05:01:52.894Z,71.77
2019-04-06T05:02:26.260Z,71.26
2019-04-06T05:02:57.565Z,71.08
2019-04-06T05:03:28.912Z,71.65
2019-04-06T05:04:00.245Z,71.67
2019-04-06T05:04:31.496Z,71.44
2019-04-06T05:05:02.771Z,71.03
2019-04-06T05:05:34.160Z,70.85
2019-04-06T05:06:05.457Z,71.37
2019-04-06T05:06:36.788Z,71.04
2019-04-06T05:07:08.058Z,70.84
2019-04-06T05:07:39.449Z,70.77
2019-04-06T05:08:10.686Z,71.16
2019-04-06T05:08:41.991Z,71.43
2019-04-06T05:09:13.230Z,71.38
2019-04-06T05:09:44.708Z,70.65
2019-04-06T05:10:16.067Z,71.14
2019-04-06T05:10:47.365Z,71.23
2019-04-06T05:11:19.676Z,70.65
2019-04-06T05:11:52.769Z,70.28
2019-04-06T05:12:24.000Z,70.31
2019-04-06T05:12:55.266Z,70.47
2019-04-06T05:13:26.506Z,70.57
2019-04-06T05:14:00.812Z,70.71
2019-04-06T05:14:34.259Z,70.76
2019-04-06T05:15:09.482Z,70.82
2019-04-06T05:15:40.703Z,70.84
2019-04-06T05:16:12.159Z,70.80
2019-04-06T05:16:49.318Z,70.92
2019-04-06T05:17:20.527Z,71.22
2019-04-06T05:17:51.835Z,71.14
2019-04-06T05:18:23.145Z,71.24
2019-04-06T05:18:56.919Z,72.25
2019-04-06T05:19:43.042Z,72.24
2019-04-06T05:20:14.325Z,71.37
2019-04-06T05:20:45.592Z,70.04
2019-04-06T05:21:19.268Z,69.37
2019-04-06T05:21:50.575Z,69.86
2019-04-06T05:22:21.789Z,69.30
2019-04-06T05:22:56.449Z,69.13
2019-04-06T05:23:27.786Z,68.79
2019-04-06T05:24:04.177Z,68.72
2019-04-06T05:24:35.027Z,68.68
2019-04-06T05:25:08.188Z,68.63
2019-04-06T05:25:39.515Z,68.04
2019-04-06T05:26:12.810Z,67.22
2019-04-06T05:26:46.890Z,67.43
2019-04-06T05:27:18.246Z,67.33
2019-04-06T05:27:52.714Z,67.21
2019-04-06T05:28:22.479Z,67.69
2019-04-06T05:28:53.751Z,67.99
2019-04-06T05:29:25.013Z,67.25
2019-04-06T05:29:56.491Z,66.90
2019-04-06T05:30:27.750Z,66.65
2019-04-06T05:31:07.768Z,67.26
2019-04-06T05:31:39.337Z,67.28
2019-04-06T05:32:10.619Z,67.27
2019-04-06T05:32:44.259Z,67.35
2019-04-06T05:33:15.527Z,67.54
2019-04-06T05:33:46.775Z,67.52
2019-04-06T05:34:18.012Z,67.37
2019-04-06T05:34:49.285Z,66.98
2019-04-06T05:35:20.647Z,66.36
2019-04-06T05:35:51.944Z,65.77
2019-04-06T05:36:23.329Z,65.71
2019-04-06T05:36:54.751Z,66.57
2019-04-06T05:37:26.024Z,66.25
2019-04-06T05:37:57.442Z,66.27
2019-04-06T05:38:28.793Z,66.17
2019-04-06T05:39:00.069Z,66.72
2019-04-06T05:39:31.468Z,66.56
2019-04-06T05:40:02.725Z,66.62
2019-04-06T05:40:34.017Z,67.40
2019-04-06T05:41:05.288Z,67.16
2019-04-06T05:41:36.573Z,66.67
2019-04-06T05:42:07.858Z,66.33
2019-04-06T05:42:40.797Z,66.13
2019-04-06T05:43:12.076Z,66.09
2019-04-06T05:43:43.363Z,66.09
2019-04-06T05:44:14.622Z,66.43
2019-04-06T05:44:45.909Z,66.82
2019-04-06T05:45:17.197Z,66.96
2019-04-06T05:45:48.445Z,67.08
2019-04-06T05:46:19.725Z,67.32
2019-04-06T05:46:51.022Z,67.37
2019-04-06T05:47:22.365Z,67.39
2019-04-06T05:47:53.652Z,67.67
2019-04-06T05:48:25.029Z,67.53
2019-04-06T05:48:59.208Z,67.65
2019-04-06T05:49:30.692Z,67.20
2019-04-06T05:50:02.053Z,67.62
2019-04-06T05:50:33.421Z,66.28
2019-04-06T05:51:04.861Z,66.79
2019-04-06T05:51:36.124Z,66.53
2019-04-06T05:52:07.453Z,66.31
2019-04-06T05:52:38.712Z,66.48
2019-04-06T05:53:10.178Z,66.04
2019-04-06T05:53:41.407Z,66.25
2019-04-06T05:54:12.679Z,65.53
2019-04-06T05:54:44.076Z,65.22
2019-04-06T05:55:15.421Z,64.54
2019-04-06T05:57:37.253Z,64.06
2019-04-06T05:58:10.608Z,65.46
2019-04-06T05:58:44.351Z,64.25
2019-04-06T05:59:15.324Z,63.67
2019-04-06T05:59:46.520Z,63.91
2019-04-06T06:00:18.184Z,64.03
2019-04-06T06:00:52.051Z,64.55
2019-04-06T06:01:23.321Z,63.98
2019-04-06T06:01:54.663Z,63.60
2019-04-06T06:02:25.894Z,63.69
2019-04-06T06:02:57.119Z,63.92
2019-04-06T06:03:28.322Z,63.98
2019-04-06T06:04:01.003Z,63.97
2019-04-06T06:04:40.275Z,64.11
2019-04-06T06:05:14.034Z,65.38
2019-04-06T06:05:45.423Z,65.37
2019-04-06T06:06:19.298Z,65.25
2019-04-06T06:06:50.508Z,64.16
2019-04-06T06:07:21.771Z,65.04
2019-04-06T06:07:53.036Z,64.87
2019-04-06T06:08:27.370Z,65.07
2019-04-06T06:08:58.660Z,65.19
2019-04-06T06:09:29.898Z,64.75
2019-04-06T06:10:04.172Z,63.78
2019-04-06T06:10:35.474Z,64.18
2019-04-06T06:11:06.705Z,63.36
2019-04-06T06:11:39.968Z,62.71
2019-04-06T06:12:10.942Z,62.52
2019-04-06T06:12:42.253Z,63.00
2019-04-06T06:13:19.454Z,62.03
2019-04-06T06:13:52.714Z,62.08
2019-04-06T06:14:24.033Z,62.51
2019-04-06T06:14:55.326Z,62.99
2019-04-06T06:15:26.610Z,62.88
2019-04-06T06:15:57.822Z,62.96
2019-04-06T06:16:31.921Z,63.13
2019-04-06T06:17:03.300Z,63.10
2019-04-06T06:17:34.568Z,63.18
2019-04-06T06:18:05.811Z,63.48
2019-04-06T06:18:37.117Z,63.54
2019-04-06T06:19:08.486Z,64.26
2019-04-06T06:19:39.763Z,63.67
2019-04-06T06:20:10.962Z,63.67
2019-04-06T06:20:48.239Z,64.51
2019-04-06T06:21:18.064Z,64.54
2019-04-06T06:21:49.431Z,64.41
2019-04-06T06:22:20.717Z,63.91
2019-04-06T06:22:51.936Z,63.35
2019-04-06T06:23:23.198Z,62.81
2019-04-06T06:23:54.457Z,62.83
2019-04-06T06:24:25.784Z,62.89
2019-04-06T06:24:58.345Z,63.26
2019-04-06T06:25:31.254Z,63.20
2019-04-06T06:26:02.592Z,63.04
2019-04-06T06:26:33.921Z,63.82
2019-04-06T06:27:05.450Z,64.37
2019-04-06T06:27:37.755Z,64.56
2019-04-06T06:28:14.169Z,64.51
2019-04-06T06:28:43.397Z,63.52
2019-04-06T06:29:14.689Z,63.15
2019-04-06T06:29:52.630Z,63.40
2019-04-06T06:30:21.507Z,63.30
2019-04-06T06:30:52.745Z,62.99
2019-04-06T06:31:27.291Z,63.12
2019-04-06T06:31:58.561Z,63.01
2019-04-06T06:32:31.100Z,63.47
2019-04-06T06:33:02.892Z,63.04
2019-04-06T06:33:34.154Z,62.40
2019-04-06T06:34:05.419Z,62.56
2019-04-06T06:34:36.668Z,62.46
2019-04-06T06:35:08.018Z,62.77
2019-04-06T06:35:39.303Z,61.59
2019-04-06T06:36:10.718Z,61.43
2019-04-06T06:36:42.192Z,61.39
2019-04-06T06:37:13.534Z,61.69
2019-04-06T06:37:44.844Z,61.82
2019-04-06T06:38:16.265Z,61.91
2019-04-06T06:38:47.476Z,61.89
2019-04-06T06:39:18.852Z,61.96
2019-04-06T06:39:51.743Z,62.04
2019-04-06T06:40:23.253Z,62.08
2019-04-06T06:40:57.700Z,62.27
2019-04-06T06:41:28.904Z,62.50
2019-04-06T06:42:00.139Z,62.96
2019-04-06T06:42:31.377Z,62.02
2019-04-06T06:43:02.643Z,61.57
2019-04-06T06:43:33.865Z,62.28
2019-04-06T06:44:05.101Z,62.64
2019-04-06T06:44:36.310Z,62.34
2019-04-06T06:45:07.673Z,62.08
2019-04-06T06:45:39.077Z,61.58
2019-04-06T06:46:10.320Z,61.71
2019-04-06T06:46:41.553Z,62.11
2019-04-06T06:47:12.812Z,61.35
2019-04-06T06:47:44.302Z,62.22
2019-04-06T06:48:15.493Z,60.95
2019-04-06T06:48:46.737Z,61.39
2019-04-06T06:49:19.398Z,60.87